createdAt,value
2023-02-08T00:01:23.906Z,18.53
2023-02-08T00:03:50.950Z,14.57
2023-02-08T00:06:18.003Z,18.13
2023-02-08T00:08:45.403Z,14.93
2023-02-08T00:11:12.303Z,15.67
2023-02-08T00:13:42.114Z,18.07
2023-02-08T00:16:10.187Z,16.27
2023-02-08T00:18:36.728Z,15.77
2023-02-08T00:21:07.777Z,15.50
2023-02-08T00:23:34.194Z,17.60
2023-02-08T00:26:00.614Z,18.50
2023-02-08T00:28:27.112Z,17.47
2023-02-08T00:30:53.626Z,18.80
2023-02-08T00:33:20.663Z,16.63
2023-02-08T00:35:47.071Z,15.87
2023-02-08T00:38:13.484Z,16.73
2023-02-08T00:40:40.185Z,19.37
2023-02-08T00:43:06.886Z,18.30
2023-02-08T00:45:34.545Z,16.73
2023-02-08T00:48:01.066Z,15.17
2023-02-08T00:50:28.299Z,15.40
2023-02-08T00:52:57.813Z,14.83
2023-02-08T00:55:25.122Z,16.67
2023-02-08T00:57:51.631Z,15.33
2023-02-08T01:00:18.571Z,18.47
2023-02-08T01:02:44.990Z,16.63
2023-02-08T01:05:11.566Z,15.40
2023-02-08T01:07:40.075Z,15.00
2023-02-08T01:10:08.646Z,15.90
2023-02-08T01:12:35.108Z,16.20
2023-02-08T01:15:01.679Z,16.37
2023-02-08T01:17:28.358Z,18.10
2023-02-08T01:19:54.799Z,15.63
2023-02-08T01:22:21.301Z,17.10
2023-02-08T01:24:48.369Z,17.00
2023-02-08T01:27:14.774Z,15.23
2023-02-08T01:29:41.352Z,17.20
2023-02-08T01:32:07.811Z,17.23
2023-02-08T01:34:34.213Z,15.13
2023-02-08T01:37:00.638Z,17.70
2023-02-08T01:39:27.187Z,18.63
2023-02-08T01:41:54.347Z,18.77
2023-02-08T01:44:58.190Z,15.40
2023-02-08T01:47:24.672Z,17.90
2023-02-08T01:49:51.398Z,15.93
2023-02-08T01:52:21.391Z,15.83
2023-02-08T01:54:53.659Z,18.00
2023-02-08T01:57:22.638Z,18.40
2023-02-08T01:59:54.164Z,16.83
2023-02-08T02:02:25.514Z,17.63
2023-02-08T02:04:53.659Z,18.77
2023-02-08T02:07:22.176Z,16.60
2023-02-08T02:09:53.424Z,19.03
2023-02-08T02:12:21.200Z,17.47
2023-02-08T02:14:48.393Z,17.50
2023-02-08T02:17:18.010Z,17.57
2023-02-08T02:19:52.038Z,16.50
2023-02-08T02:22:59.694Z,17.37
2023-02-08T02:26:01.026Z,18.37
2023-02-08T02:29:08.526Z,17.53
2023-02-08T02:32:07.004Z,18.63
2023-02-08T02:34:40.508Z,18.57
2023-02-08T02:37:16.355Z,17.80
2023-02-08T02:39:57.613Z,17.23
2023-02-08T02:42:48.554Z,17.93
2023-02-08T02:45:23.850Z,18.20
2023-02-08T02:47:55.884Z,17.57
2023-02-08T02:50:30.139Z,19.80
2023-02-08T02:53:02.234Z,18.47
2023-02-08T02:55:33.523Z,18.37
2023-02-08T02:58:03.789Z,19.40
2023-02-08T03:00:32.607Z,17.53
2023-02-08T03:03:00.031Z,18.87
2023-02-08T03:05:28.757Z,18.47
2023-02-08T03:08:15.681Z,20.17
2023-02-08T03:11:01.275Z,17.67
2023-02-08T03:13:41.904Z,19.67
2023-02-08T03:16:17.607Z,17.27
2023-02-08T03:18:58.953Z,19.23
2023-02-08T03:21:36.830Z,17.53
2023-02-08T03:24:15.931Z,17.90
2023-02-08T03:26:50.147Z,16.87
2023-02-08T03:29:26.455Z,19.57
2023-02-08T03:31:59.317Z,18.70
2023-02-08T03:34:30.956Z,18.93
2023-02-08T03:37:01.829Z,17.10
2023-02-08T03:39:31.446Z,19.83
2023-02-08T03:42:04.978Z,18.17
2023-02-08T03:44:36.853Z,17.80
2023-02-08T03:47:11.673Z,18.47
2023-02-08T03:49:40.257Z,18.90
2023-02-08T03:52:10.210Z,20.13
2023-02-08T03:54:42.422Z,18.30
2023-02-08T03:57:15.278Z,19.43
2023-02-08T03:59:45.193Z,19.47
2023-02-08T04:02:16.472Z,17.53
2023-02-08T04:04:46.374Z,18.17
2023-02-08T04:07:13.442Z,18.63
2023-02-08T04:09:39.963Z,18.43
2023-02-08T04:12:07.335Z,18.07
2023-02-08T04:14:34.386Z,17.63
2023-02-08T04:17:01.229Z,20.00
2023-02-08T04:19:27.729Z,18.77
2023-02-08T04:21:55.181Z,19.13
2023-02-08T04:24:21.655Z,17.33
2023-02-08T04:26:48.144Z,20.00
2023-02-08T04:29:14.574Z,18.10
2023-02-08T04:31:41.332Z,18.33
2023-02-08T04:34:07.976Z,21.23
2023-02-08T04:36:34.540Z,18.50
2023-02-08T04:39:01.650Z,19.37
2023-02-08T04:41:28.097Z,18.73
2023-02-08T04:43:54.562Z,20.23
2023-02-08T04:46:21.013Z,19.60
2023-02-08T04:48:47.619Z,21.03
2023-02-08T04:51:14.032Z,19.90
2023-02-08T04:53:40.568Z,19.30
2023-02-08T04:56:07.852Z,19.73
2023-02-08T04:58:35.093Z,20.33
2023-02-08T05:01:01.538Z,19.17
2023-02-08T05:03:28.038Z,19.63
2023-02-08T05:05:58.268Z,18.63
2023-02-08T05:08:24.839Z,24.07
2023-02-08T05:10:51.419Z,22.50
2023-02-08T05:13:18.696Z,19.00
2023-02-08T05:15:45.518Z,23.57
2023-02-08T05:18:12.053Z,21.47
2023-02-08T05:20:38.825Z,21.07
2023-02-08T05:23:05.693Z,21.77
2023-02-08T05:25:32.284Z,20.60
2023-02-08T05:27:59.025Z,22.10
2023-02-08T05:30:26.130Z,20.63
2023-02-08T05:32:52.688Z,20.53
2023-02-08T05:35:19.133Z,25.03
2023-02-08T05:37:45.543Z,20.17
2023-02-08T05:40:12.565Z,22.10
2023-02-08T05:42:39.079Z,21.80
2023-02-08T05:45:06.532Z,22.90
2023-02-08T05:47:33.768Z,23.17
2023-02-08T05:50:00.229Z,20.90
2023-02-08T05:52:26.713Z,21.67
2023-02-08T05:54:53.204Z,20.67
2023-02-08T05:57:19.694Z,23.50
2023-02-08T05:59:46.267Z,23.03
2023-02-08T06:02:13.501Z,21.87
2023-02-08T06:04:40.640Z,24.27
2023-02-08T06:07:08.191Z,24.50
2023-02-08T06:09:34.679Z,23.30
2023-02-08T06:12:01.152Z,24.30
2023-02-08T06:14:27.594Z,23.00
2023-02-08T06:16:54.248Z,22.40
2023-02-08T06:19:21.120Z,22.07
2023-02-08T06:21:48.349Z,25.87
2023-02-08T06:24:15.913Z,28.00
2023-02-08T06:26:42.645Z,27.77
2023-02-08T06:29:09.222Z,26.00
2023-02-08T06:31:36.261Z,21.80
2023-02-08T06:34:02.901Z,23.70
2023-02-08T06:36:29.480Z,25.87
2023-02-08T06:38:56.749Z,24.37
2023-02-08T06:41:23.362Z,25.90
2023-02-08T06:43:49.808Z,25.00
2023-02-08T06:46:16.342Z,30.27
2023-02-08T06:48:42.815Z,26.03
2023-02-08T06:51:09.403Z,33.60
2023-02-08T06:53:38.884Z,26.43
2023-02-08T06:56:06.449Z,23.07
2023-02-08T06:58:32.989Z,24.33
2023-02-08T07:00:59.465Z,27.53
2023-02-08T07:03:25.912Z,27.43
2023-02-08T07:06:04.161Z,25.33
2023-02-08T07:08:31.945Z,24.17
2023-02-08T07:10:58.324Z,26.00
2023-02-08T07:13:26.572Z,27.40
2023-02-08T07:15:53.018Z,29.37
2023-02-08T07:18:19.421Z,26.50
2023-02-08T07:20:45.950Z,25.70
2023-02-08T07:23:12.490Z,25.47
2023-02-08T07:25:38.960Z,28.97
2023-02-08T07:28:05.456Z,26.27
2023-02-08T07:30:32.664Z,25.03
2023-02-08T07:32:59.081Z,24.67
2023-02-08T07:35:25.473Z,25.53
2023-02-08T07:37:51.957Z,23.10
2023-02-08T07:40:18.415Z,25.10
2023-02-08T07:42:44.887Z,25.23
2023-02-08T07:45:21.992Z,26.63
2023-02-08T07:47:49.062Z,25.07
2023-02-08T07:50:16.201Z,25.13
2023-02-08T07:52:45.181Z,23.80
2023-02-08T07:55:16.144Z,24.80
2023-02-08T07:57:42.594Z,25.27
2023-02-08T08:00:10.434Z,28.27
2023-02-08T08:02:38.913Z,22.53
2023-02-08T08:05:06.874Z,24.03
2023-02-08T08:07:33.275Z,22.93
2023-02-08T08:09:59.759Z,24.10
2023-02-08T08:12:26.238Z,25.87
2023-02-08T08:14:52.828Z,22.57
2023-02-08T08:17:19.470Z,22.53
2023-02-08T08:19:45.886Z,22.67
2023-02-08T08:22:12.924Z,22.93
2023-02-08T08:24:39.307Z,21.93
2023-02-08T08:27:06.208Z,26.77
2023-02-08T08:29:33.651Z,23.67
2023-02-08T08:32:00.165Z,21.67
2023-02-08T08:34:29.267Z,29.93
2023-02-08T08:36:55.774Z,21.10
2023-02-08T08:39:22.920Z,22.13
2023-02-08T08:41:49.439Z,20.70
2023-02-08T08:44:15.941Z,28.17
2023-02-08T08:46:43.186Z,23.00
2023-02-08T08:49:09.639Z,24.63
2023-02-08T08:51:36.672Z,21.63
2023-02-08T08:54:03.700Z,23.50
2023-02-08T08:56:31.251Z,21.50
2023-02-08T08:58:57.652Z,22.93
2023-02-08T09:01:24.199Z,20.00
2023-02-08T09:03:50.666Z,20.60
2023-02-08T09:06:17.151Z,20.63
2023-02-08T09:08:43.566Z,17.83
2023-02-08T09:11:12.046Z,19.23
2023-02-08T09:13:39.677Z,19.23
2023-02-08T09:16:10.924Z,21.90
2023-02-08T09:18:37.842Z,19.83
2023-02-08T09:21:08.941Z,19.03
2023-02-08T09:23:35.418Z,20.07
2023-02-08T09:26:02.283Z,21.73
2023-02-08T09:28:28.714Z,23.53
2023-02-08T09:30:55.928Z,17.97
2023-02-08T09:33:22.377Z,20.33
2023-02-08T09:35:49.688Z,15.87
2023-02-08T09:38:16.117Z,18.07
2023-02-08T09:40:49.067Z,18.73
2023-02-08T09:43:22.183Z,21.67
2023-02-08T09:46:00.258Z,16.20
2023-02-08T09:48:33.393Z,16.93
2023-02-08T09:51:04.961Z,18.87
2023-02-08T09:53:34.641Z,15.23
2023-02-08T09:56:06.625Z,15.17
2023-02-08T09:58:37.033Z,18.13
2023-02-08T10:01:06.795Z,18.77
2023-02-08T10:03:37.174Z,16.07
2023-02-08T10:06:06.572Z,19.80
2023-02-08T10:08:35.582Z,18.23
2023-02-08T10:11:19.754Z,18.00
2023-02-08T10:14:13.357Z,23.53
2023-02-08T10:16:53.768Z,14.77
2023-02-08T10:19:41.024Z,18.57
2023-02-08T10:22:26.264Z,20.67
2023-02-08T10:25:08.104Z,18.30
2023-02-08T10:27:45.202Z,17.97
2023-02-08T10:30:24.581Z,24.07
2023-02-08T10:32:59.159Z,20.33
2023-02-08T10:35:31.409Z,17.57
2023-02-08T10:37:58.797Z,19.00
2023-02-08T10:40:37.541Z,20.37
2023-02-08T10:43:19.037Z,18.10
2023-02-08T10:45:52.505Z,21.40
2023-02-08T10:48:31.400Z,22.93
2023-02-08T10:50:58.437Z,22.97
2023-02-08T10:53:24.913Z,17.87
2023-02-08T10:55:51.438Z,21.37
2023-02-08T10:58:21.543Z,21.27
2023-02-08T11:00:51.291Z,17.40
2023-02-08T11:03:21.791Z,19.20
2023-02-08T11:05:48.920Z,17.20
2023-02-08T11:08:19.107Z,16.67
2023-02-08T11:10:57.863Z,15.27
2023-02-08T11:13:27.124Z,16.47
2023-02-08T11:15:57.301Z,17.23
2023-02-08T11:18:26.223Z,17.07
2023-02-08T11:20:55.776Z,16.50
2023-02-08T11:23:26.389Z,16.07
2023-02-08T11:25:54.102Z,16.97
2023-02-08T11:28:27.809Z,17.03
2023-02-08T11:31:03.208Z,21.23
2023-02-08T11:33:30.241Z,21.87
2023-02-08T11:36:12.833Z,16.63
2023-02-08T11:38:45.701Z,18.07
2023-02-08T11:41:20.980Z,14.73
2023-02-08T11:43:57.317Z,16.50
2023-02-08T11:46:25.839Z,17.90
2023-02-08T11:48:55.550Z,15.37
2023-02-08T11:51:28.266Z,17.73
2023-02-08T11:53:56.337Z,16.23
2023-02-08T11:56:24.429Z,18.30
2023-02-08T11:59:19.133Z,18.23
2023-02-08T12:01:48.137Z,17.17
2023-02-08T12:04:16.449Z,17.10
2023-02-08T12:07:13.784Z,20.70
2023-02-08T12:10:09.314Z,19.23
2023-02-08T12:12:48.094Z,14.60
2023-02-08T12:15:26.169Z,16.47
2023-02-08T12:18:13.556Z,16.67
2023-02-08T12:20:41.637Z,17.30
2023-02-08T12:23:33.493Z,16.47
2023-02-08T12:26:09.212Z,20.27
2023-02-08T12:28:58.542Z,17.80
2023-02-08T12:31:40.999Z,16.03
2023-02-08T12:34:16.513Z,19.63
2023-02-08T12:37:21.265Z,16.50
2023-02-08T12:40:24.442Z,17.70
2023-02-08T12:43:04.766Z,18.83
2023-02-08T12:45:50.345Z,20.10
2023-02-08T12:48:31.338Z,18.00
2023-02-08T12:51:07.498Z,20.20
2023-02-08T12:53:40.717Z,21.13
2023-02-08T12:56:15.805Z,16.53
2023-02-08T12:58:46.307Z,19.03
2023-02-08T13:01:18.406Z,20.03
2023-02-08T13:03:51.219Z,19.90
2023-02-08T13:06:23.130Z,18.47
2023-02-08T13:08:58.702Z,21.03
2023-02-08T13:11:32.564Z,25.80
2023-02-08T13:14:05.745Z,20.33
2023-02-08T13:16:38.277Z,26.13
2023-02-08T13:19:25.482Z,29.50
2023-02-08T13:21:53.286Z,25.57
2023-02-08T13:24:28.050Z,22.13
2023-02-08T13:26:54.612Z,21.37
2023-02-08T13:29:28.112Z,25.17
2023-02-08T13:32:00.483Z,24.97
2023-02-08T13:34:35.199Z,21.80
2023-02-08T13:37:08.822Z,26.50
2023-02-08T13:39:41.914Z,24.30
2023-02-08T13:42:28.866Z,22.80
2023-02-08T13:45:00.654Z,20.83
2023-02-08T13:47:30.344Z,20.90
2023-02-08T13:50:00.315Z,21.63
2023-02-08T13:52:48.896Z,21.63
2023-02-08T13:55:45.401Z,22.70
2023-02-08T13:59:02.703Z,21.77
2023-02-08T14:01:31.625Z,25.37
2023-02-08T14:04:35.946Z,28.57
2023-02-08T14:07:07.529Z,19.63
2023-02-08T14:09:46.819Z,20.53
2023-02-08T14:12:23.642Z,17.40
2023-02-08T14:15:21.007Z,20.57
2023-02-08T14:17:50.191Z,22.60
2023-02-08T14:20:21.117Z,17.73
2023-02-08T14:22:51.597Z,19.27
2023-02-08T14:25:21.260Z,23.10
2023-02-08T14:27:53.727Z,23.03
2023-02-08T14:30:26.805Z,21.30
2023-02-08T14:33:11.947Z,32.47
2023-02-08T14:35:53.013Z,19.40
2023-02-08T14:38:49.320Z,20.33
2023-02-08T14:41:49.989Z,19.33
2023-02-08T14:44:55.028Z,16.33
2023-02-08T14:48:02.188Z,17.10
2023-02-08T14:50:33.427Z,20.73
2023-02-08T14:53:07.031Z,19.70
2023-02-08T14:55:41.856Z,19.07
2023-02-08T14:58:14.590Z,20.53
2023-02-08T15:00:44.724Z,17.03
2023-02-08T15:03:18.868Z,27.17
2023-02-08T15:06:11.125Z,16.17
2023-02-08T15:08:40.622Z,20.73
2023-02-08T15:11:20.369Z,19.40
2023-02-08T15:13:53.046Z,17.77
2023-02-08T15:16:19.933Z,16.93
2023-02-08T15:18:48.468Z,15.37
2023-02-08T15:21:18.340Z,28.63
2023-02-08T15:23:58.606Z,16.77
2023-02-08T15:26:25.858Z,17.30
2023-02-08T15:28:52.643Z,19.07
2023-02-08T15:31:23.139Z,18.20
2023-02-08T15:33:52.708Z,16.93
2023-02-08T15:36:25.299Z,16.43
2023-02-08T15:38:52.071Z,16.10
2023-02-08T15:41:26.097Z,15.80
2023-02-08T15:44:01.584Z,16.83
2023-02-08T15:46:29.213Z,16.57
2023-02-08T15:48:56.536Z,17.63
2023-02-08T15:51:24.431Z,25.83
2023-02-08T15:53:54.225Z,15.13
2023-02-08T15:56:36.801Z,19.63
2023-02-08T15:59:07.292Z,20.03
2023-02-08T16:01:33.882Z,17.60
2023-02-08T16:04:05.236Z,23.57
2023-02-08T16:06:38.482Z,18.13
2023-02-08T16:09:16.380Z,19.37
2023-02-08T16:11:48.429Z,20.60
2023-02-08T16:14:17.396Z,28.37
2023-02-08T16:16:46.679Z,19.27
2023-02-08T16:19:25.287Z,21.23
2023-02-08T16:21:54.132Z,17.17
2023-02-08T16:24:23.672Z,22.33
2023-02-08T16:27:00.246Z,18.47
2023-02-08T16:29:29.380Z,19.43
2023-02-08T16:32:02.943Z,19.40
2023-02-08T16:34:41.153Z,18.03
2023-02-08T16:37:25.513Z,17.83
2023-02-08T16:39:54.917Z,16.53
2023-02-08T16:42:29.000Z,18.77
2023-02-08T16:45:25.520Z,18.90
2023-02-08T16:47:53.413Z,19.33
2023-02-08T16:50:21.876Z,18.10
2023-02-08T16:52:53.831Z,17.87
2023-02-08T16:55:22.880Z,17.30
2023-02-08T16:57:51.277Z,16.07
2023-02-08T17:00:46.617Z,16.70
2023-02-08T17:03:13.235Z,18.30
2023-02-08T17:05:40.850Z,24.00
2023-02-08T17:08:14.606Z,16.43
2023-02-08T17:10:42.781Z,20.70
2023-02-08T17:13:20.306Z,18.50
2023-02-08T17:15:49.785Z,17.03
2023-02-08T17:18:16.734Z,16.93
2023-02-08T17:20:44.002Z,24.57
2023-02-08T17:23:11.505Z,21.37
2023-02-08T17:25:38.806Z,18.27
2023-02-08T17:28:07.632Z,21.77
2023-02-08T17:30:36.904Z,25.83
2023-02-08T17:33:18.400Z,21.03
2023-02-08T17:35:46.652Z,20.27
2023-02-08T17:38:14.941Z,17.73
2023-02-08T17:40:42.075Z,17.20
2023-02-08T17:43:13.212Z,20.43
2023-02-08T17:45:44.246Z,17.13
2023-02-08T17:48:12.924Z,16.63
2023-02-08T17:50:47.381Z,17.80
2023-02-08T17:53:15.174Z,17.10
2023-02-08T17:55:43.250Z,20.13
2023-02-08T17:58:10.630Z,18.83
2023-02-08T18:00:46.052Z,18.23
2023-02-08T18:03:12.616Z,18.17
2023-02-08T18:05:39.138Z,18.93
2023-02-08T18:08:05.638Z,21.43
2023-02-08T18:10:32.958Z,17.40
2023-02-08T18:12:59.588Z,18.73
2023-02-08T18:15:26.550Z,18.00
2023-02-08T18:17:53.146Z,17.53
2023-02-08T18:20:20.246Z,22.33
2023-02-08T18:22:56.562Z,16.83
2023-02-08T18:25:23.122Z,18.13
2023-02-08T18:27:50.509Z,20.53
2023-02-08T18:30:18.464Z,19.03
2023-02-08T18:32:45.128Z,17.53
2023-02-08T18:35:12.079Z,16.93
2023-02-08T18:37:39.654Z,16.50
2023-02-08T18:40:07.379Z,18.73
2023-02-08T18:42:36.076Z,18.67
2023-02-08T18:45:06.446Z,19.00
2023-02-08T18:47:34.637Z,17.27
2023-02-08T18:50:01.533Z,18.37
2023-02-08T18:52:29.148Z,17.90
2023-02-08T18:54:56.729Z,19.07
2023-02-08T18:57:25.143Z,19.57
2023-02-08T18:59:53.258Z,20.57
2023-02-08T19:02:22.140Z,15.97
2023-02-08T19:04:48.930Z,17.70
2023-02-08T19:07:15.815Z,21.00
2023-02-08T19:09:43.060Z,17.40
2023-02-08T19:12:10.044Z,16.87
2023-02-08T19:14:36.707Z,18.27
2023-02-08T19:17:03.703Z,21.10
2023-02-08T19:19:30.750Z,20.07
2023-02-08T19:21:57.165Z,17.97
2023-02-08T19:24:23.763Z,16.93
2023-02-08T19:26:50.396Z,20.77
2023-02-08T19:29:19.258Z,19.03
2023-02-08T19:31:45.922Z,17.83
2023-02-08T19:34:12.961Z,18.50
2023-02-08T19:36:43.689Z,17.90
2023-02-08T19:39:13.117Z,17.53
2023-02-08T19:41:39.724Z,18.17
2023-02-08T19:44:10.676Z,23.00
2023-02-08T19:46:38.257Z,18.07
2023-02-08T19:49:06.011Z,18.10
2023-02-08T19:51:36.175Z,18.07
2023-02-08T19:54:06.364Z,18.50
2023-02-08T19:56:33.379Z,17.77
2023-02-08T19:58:59.974Z,19.37
2023-02-08T20:01:26.380Z,18.03
2023-02-08T20:03:53.630Z,20.73
2023-02-08T20:06:22.489Z,17.33
2023-02-08T20:08:49.266Z,18.50
2023-02-08T20:11:19.282Z,17.57
2023-02-08T20:13:46.379Z,24.07
2023-02-08T20:16:12.810Z,20.80
2023-02-08T20:18:39.427Z,21.00
2023-02-08T20:21:06.971Z,17.37
2023-02-08T20:23:34.023Z,17.93
2023-02-08T20:26:09.164Z,17.00
2023-02-08T20:28:38.079Z,18.27
2023-02-08T20:31:08.548Z,22.70
2023-02-08T20:33:35.298Z,16.70
2023-02-08T20:36:09.181Z,21.87
2023-02-08T20:38:36.825Z,18.63
2023-02-08T20:41:04.739Z,22.33
2023-02-08T20:43:31.548Z,17.93
2023-02-08T20:45:58.715Z,18.10
2023-02-08T20:48:25.453Z,18.70
2023-02-08T20:50:51.922Z,17.30
2023-02-08T20:53:18.323Z,18.53
2023-02-08T20:55:46.206Z,19.77
2023-02-08T20:58:12.949Z,18.87
2023-02-08T21:00:42.687Z,19.40
2023-02-08T21:03:10.581Z,17.07
2023-02-08T21:05:37.100Z,19.57
2023-02-08T21:08:06.604Z,15.73
2023-02-08T21:10:35.536Z,19.90
2023-02-08T21:13:02.041Z,17.97
2023-02-08T21:15:28.764Z,20.67
2023-02-08T21:17:55.464Z,16.73
2023-02-08T21:20:23.744Z,18.00
2023-02-08T21:22:50.236Z,16.27
2023-02-08T21:25:16.930Z,17.13
2023-02-08T21:27:43.372Z,17.67
2023-02-08T21:30:10.765Z,21.07
2023-02-08T21:32:37.212Z,18.20
2023-02-08T21:35:04.202Z,17.50
2023-02-08T21:37:33.781Z,19.73
2023-02-08T21:40:00.190Z,16.57
2023-02-08T21:42:26.970Z,17.97
2023-02-08T21:44:53.398Z,14.53
2023-02-08T21:47:20.003Z,15.60
2023-02-08T21:50:04.834Z,16.67
2023-02-08T21:52:49.703Z,17.37
2023-02-08T21:55:17.031Z,17.60
2023-02-08T21:57:43.437Z,16.53
2023-02-08T22:00:11.212Z,17.73
2023-02-08T22:02:42.690Z,16.57
2023-02-08T22:05:09.300Z,18.47
2023-02-08T22:07:44.341Z,18.70
2023-02-08T22:10:12.302Z,19.60
2023-02-08T22:12:41.098Z,21.00
2023-02-08T22:15:08.693Z,22.40
2023-02-08T22:17:35.164Z,17.63
2023-02-08T22:20:01.883Z,22.07
2023-02-08T22:22:28.304Z,24.67
2023-02-08T22:24:54.725Z,26.93
2023-02-08T22:27:21.126Z,25.00
2023-02-08T22:29:48.210Z,22.67
2023-02-08T22:32:16.213Z,24.47
2023-02-08T22:34:43.263Z,23.47
2023-02-08T22:37:09.830Z,20.10
2023-02-08T22:39:36.458Z,23.47
2023-02-08T22:42:07.405Z,22.57
2023-02-08T22:44:34.049Z,21.53
2023-02-08T22:47:01.228Z,24.60
2023-02-08T22:49:27.833Z,21.30
2023-02-08T22:51:54.423Z,25.90
2023-02-08T22:54:20.844Z,24.50
2023-02-08T22:56:47.212Z,20.47
2023-02-08T22:59:13.654Z,19.47
2023-02-08T23:01:40.038Z,18.63
2023-02-08T23:04:07.146Z,19.80
2023-02-08T23:06:34.813Z,19.67
2023-02-08T23:09:02.298Z,18.50
2023-02-08T23:11:28.855Z,19.80
2023-02-08T23:13:55.442Z,22.60
2023-02-08T23:16:22.345Z,22.43
2023-02-08T23:18:48.816Z,21.97
2023-02-08T23:21:17.910Z,24.73
2023-02-08T23:23:45.550Z,23.33
2023-02-08T23:26:14.848Z,26.63
2023-02-08T23:28:41.614Z,23.77
2023-02-08T23:31:10.536Z,23.33
2023-02-08T23:33:37.452Z,22.97
2023-02-08T23:36:05.421Z,22.93
2023-02-08T23:38:32.464Z,22.07
2023-02-08T23:41:02.881Z,23.40
2023-02-08T23:43:29.336Z,26.03
2023-02-08T23:45:55.751Z,24.20
2023-02-08T23:48:22.119Z,24.07
2023-02-08T23:50:56.587Z,25.37
2023-02-08T23:53:25.952Z,28.27
2023-02-08T23:56:04.024Z,22.83
2023-02-08T23:58:30.408Z,24.77
